Terminal Aerodrome Forecast
Issued by NWS Wilmington, NC

Home | Current Version | Previous Version | Text Only | Print | Product List | Glossary On
Versions: 1 2 3 4 5 6 7 8 9 10 11 12 13 14 15 16 17 18
038
FTUS42 KILM 071122
TAFLBT
TAF
KLBT 071122Z 0712/0812 31007KT P6SM OVC006
      TEMPO 0712/0714 5SM BR
     FM071400 33007KT P6SM FEW007 SCT020
     FM072100 VRB03KT P6SM FEW250
     FM080300 00000KT P6SM SCT050 OVC100=

USA.gov is the U.S. government's official web portal to all federal, state and local government web resources and services.